sensor_id;sensor_type;location;lat;lon;timestamp;temperature;humidity
35497;DHT22;21609;49.298;6.844;2023-02-28T00:01:23;16.00;48.90
35497;DHT22;21609;49.298;6.844;2023-02-28T00:03:48;16.00;49.00
35497;DHT22;21609;49.298;6.844;2023-02-28T00:06:14;16.00;49.00
35497;DHT22;21609;49.298;6.844;2023-02-28T00:08:40;16.00;49.00
35497;DHT22;21609;49.298;6.844;2023-02-28T00:11:08;16.00;49.00
35497;DHT22;21609;49.298;6.844;2023-02-28T00:13:36;16.00;49.00
35497;DHT22;21609;49.298;6.844;2023-02-28T00:16:04;16.00;49.00
35497;DHT22;21609;49.298;6.844;2023-02-28T00:18:30;16.00;49.00
35497;DHT22;21609;49.298;6.844;2023-02-28T00:20:57;16.00;49.00
35497;DHT22;21609;49.298;6.844;2023-02-28T00:23:23;16.00;49.10
35497;DHT22;21609;49.298;6.844;2023-02-28T00:25:49;15.90;49.00
35497;DHT22;21609;49.298;6.844;2023-02-28T00:28:15;15.90;49.10
35497;DHT22;21609;49.298;6.844;2023-02-28T00:30:40;15.90;49.10
35497;DHT22;21609;49.298;6.844;2023-02-28T00:33:06;15.90;49.10
35497;DHT22;21609;49.298;6.844;2023-02-28T00:35:31;15.90;49.00
35497;DHT22;21609;49.298;6.844;2023-02-28T00:37:57;15.90;49.10
35497;DHT22;21609;49.298;6.844;2023-02-28T00:40:22;15.90;49.10
35497;DHT22;21609;49.298;6.844;2023-02-28T00:42:48;15.90;49.10
35497;DHT22;21609;49.298;6.844;2023-02-28T00:45:13;15.90;49.10
35497;DHT22;21609;49.298;6.844;2023-02-28T00:47:39;15.90;49.20
35497;DHT22;21609;49.298;6.844;2023-02-28T00:50:05;15.90;49.20
35497;DHT22;21609;49.298;6.844;2023-02-28T00:52:31;15.80;49.20
35497;DHT22;21609;49.298;6.844;2023-02-28T00:54:57;15.80;49.10
35497;DHT22;21609;49.298;6.844;2023-02-28T00:57:22;15.80;49.20
35497;DHT22;21609;49.298;6.844;2023-02-28T00:59:48;15.80;49.20
35497;DHT22;21609;49.298;6.844;2023-02-28T01:02:14;15.80;49.20
35497;DHT22;21609;49.298;6.844;2023-02-28T01:04:39;15.80;49.20
35497;DHT22;21609;49.298;6.844;2023-02-28T01:07:05;15.80;49.20
35497;DHT22;21609;49.298;6.844;2023-02-28T01:09:31;15.80;49.20
35497;DHT22;21609;49.298;6.844;2023-02-28T01:11:56;15.80;49.20
35497;DHT22;21609;49.298;6.844;2023-02-28T01:14:22;15.80;49.20
35497;DHT22;21609;49.298;6.844;2023-02-28T01:16:47;15.80;49.20
35497;DHT22;21609;49.298;6.844;2023-02-28T01:19:13;15.80;49.30
35497;DHT22;21609;49.298;6.844;2023-02-28T01:21:39;15.80;49.30
35497;DHT22;21609;49.298;6.844;2023-02-28T01:24:04;15.80;49.30
35497;DHT22;21609;49.298;6.844;2023-02-28T01:26:31;15.70;49.30
35497;DHT22;21609;49.298;6.844;2023-02-28T01:28:56;15.70;49.30
35497;DHT22;21609;49.298;6.844;2023-02-28T01:31:23;15.70;49.30
35497;DHT22;21609;49.298;6.844;2023-02-28T01:33:49;15.70;49.20
35497;DHT22;21609;49.298;6.844;2023-02-28T01:36:17;15.70;49.20
35497;DHT22;21609;49.298;6.844;2023-02-28T01:38:44;15.70;49.20
35497;DHT22;21609;49.298;6.844;2023-02-28T01:41:18;15.70;49.30
35497;DHT22;21609;49.298;6.844;2023-02-28T01:46:11;15.70;49.30
35497;DHT22;21609;49.298;6.844;2023-02-28T01:48:41;15.70;49.30
35497;DHT22;21609;49.298;6.844;2023-02-28T01:51:12;15.70;49.30
35497;DHT22;21609;49.298;6.844;2023-02-28T01:53:45;15.70;49.30
35497;DHT22;21609;49.298;6.844;2023-02-28T01:56:13;15.70;49.40
35497;DHT22;21609;49.298;6.844;2023-02-28T01:58:49;15.70;49.30
35497;DHT22;21609;49.298;6.844;2023-02-28T02:01:16;15.70;49.30
35497;DHT22;21609;49.298;6.844;2023-02-28T02:03:54;15.70;49.30
35497;DHT22;21609;49.298;6.844;2023-02-28T02:06:42;15.70;49.30
35497;DHT22;21609;49.298;6.844;2023-02-28T02:09:08;15.70;49.30
35497;DHT22;21609;49.298;6.844;2023-02-28T02:11:34;15.60;49.30
35497;DHT22;21609;49.298;6.844;2023-02-28T02:20:16;15.60;49.30
35497;DHT22;21609;49.298;6.844;2023-02-28T02:25:45;15.60;49.30
35497;DHT22;21609;49.298;6.844;2023-02-28T02:31:39;15.60;49.30
35497;DHT22;21609;49.298;6.844;2023-02-28T02:34:41;15.60;49.40
35497;DHT22;21609;49.298;6.844;2023-02-28T02:42:40;15.60;49.40
35497;DHT22;21609;49.298;6.844;2023-02-28T02:45:33;15.60;49.40
35497;DHT22;21609;49.298;6.844;2023-02-28T02:48:01;15.60;49.40
35497;DHT22;21609;49.298;6.844;2023-02-28T02:50:35;15.60;49.40
35497;DHT22;21609;49.298;6.844;2023-02-28T02:53:03;15.60;49.40
35497;DHT22;21609;49.298;6.844;2023-02-28T02:55:33;15.50;49.40
35497;DHT22;21609;49.298;6.844;2023-02-28T02:58:03;15.60;49.40
35497;DHT22;21609;49.298;6.844;2023-02-28T03:00:33;15.60;49.50
35497;DHT22;21609;49.298;6.844;2023-02-28T03:03:00;15.50;49.40
35497;DHT22;21609;49.298;6.844;2023-02-28T03:05:31;15.50;49.40
35497;DHT22;21609;49.298;6.844;2023-02-28T03:07:59;15.50;49.40
35497;DHT22;21609;49.298;6.844;2023-02-28T03:13:31;15.50;49.40
35497;DHT22;21609;49.298;6.844;2023-02-28T03:19:18;15.50;49.40
35497;DHT22;21609;49.298;6.844;2023-02-28T03:21:53;15.50;49.50
35497;DHT22;21609;49.298;6.844;2023-02-28T03:27:01;15.50;49.50
35497;DHT22;21609;49.298;6.844;2023-02-28T03:29:33;15.50;49.50
35497;DHT22;21609;49.298;6.844;2023-02-28T03:34:45;15.50;49.60
35497;DHT22;21609;49.298;6.844;2023-02-28T03:37:16;15.40;49.50
35497;DHT22;21609;49.298;6.844;2023-02-28T03:39:52;15.40;49.50
35497;DHT22;21609;49.298;6.844;2023-02-28T03:42:29;15.40;49.50
35497;DHT22;21609;49.298;6.844;2023-02-28T03:44:59;15.40;49.50
35497;DHT22;21609;49.298;6.844;2023-02-28T03:47:37;15.40;49.50
35497;DHT22;21609;49.298;6.844;2023-02-28T03:55:48;15.40;49.60
35497;DHT22;21609;49.298;6.844;2023-02-28T03:58:16;15.40;49.60
35497;DHT22;21609;49.298;6.844;2023-02-28T04:00:47;15.40;49.60
35497;DHT22;21609;49.298;6.844;2023-02-28T04:03:14;15.40;49.60
35497;DHT22;21609;49.298;6.844;2023-02-28T04:05:53;15.40;49.60
35497;DHT22;21609;49.298;6.844;2023-02-28T04:08:20;15.40;49.60
35497;DHT22;21609;49.298;6.844;2023-02-28T04:10:56;15.30;49.50
35497;DHT22;21609;49.298;6.844;2023-02-28T04:13:23;15.40;49.60
35497;DHT22;21609;49.298;6.844;2023-02-28T04:15:49;15.30;49.60
35497;DHT22;21609;49.298;6.844;2023-02-28T04:18:14;15.30;49.60
35497;DHT22;21609;49.298;6.844;2023-02-28T04:20:40;15.30;49.60
35497;DHT22;21609;49.298;6.844;2023-02-28T04:23:05;15.30;49.60
35497;DHT22;21609;49.298;6.844;2023-02-28T04:25:31;15.30;49.60
35497;DHT22;21609;49.298;6.844;2023-02-28T04:27:56;15.30;49.60
35497;DHT22;21609;49.298;6.844;2023-02-28T04:30:22;15.30;49.60
35497;DHT22;21609;49.298;6.844;2023-02-28T04:32:47;15.30;49.60
35497;DHT22;21609;49.298;6.844;2023-02-28T04:35:13;15.30;49.60
35497;DHT22;21609;49.298;6.844;2023-02-28T04:37:38;15.30;49.60
35497;DHT22;21609;49.298;6.844;2023-02-28T04:40:04;15.30;49.70
35497;DHT22;21609;49.298;6.844;2023-02-28T04:42:30;15.30;49.60
35497;DHT22;21609;49.298;6.844;2023-02-28T04:45:01;15.30;49.70
35497;DHT22;21609;49.298;6.844;2023-02-28T04:47:27;15.30;49.70
35497;DHT22;21609;49.298;6.844;2023-02-28T04:49:53;15.30;49.70
35497;DHT22;21609;49.298;6.844;2023-02-28T04:52:18;15.30;49.70
35497;DHT22;21609;49.298;6.844;2023-02-28T04:54:45;15.20;49.60
35497;DHT22;21609;49.298;6.844;2023-02-28T04:57:10;15.30;49.70
35497;DHT22;21609;49.298;6.844;2023-02-28T04:59:36;15.20;49.60
35497;DHT22;21609;49.298;6.844;2023-02-28T05:02:01;15.20;49.60
35497;DHT22;21609;49.298;6.844;2023-02-28T05:04:35;15.20;49.60
35497;DHT22;21609;49.298;6.844;2023-02-28T05:07:01;15.20;49.60
35497;DHT22;21609;49.298;6.844;2023-02-28T05:09:27;15.20;49.60
35497;DHT22;21609;49.298;6.844;2023-02-28T05:11:53;15.20;49.70
35497;DHT22;21609;49.298;6.844;2023-02-28T05:14:19;15.20;49.70
35497;DHT22;21609;49.298;6.844;2023-02-28T05:16:44;15.20;49.70
35497;DHT22;21609;49.298;6.844;2023-02-28T05:19:10;15.20;49.70
35497;DHT22;21609;49.298;6.844;2023-02-28T05:21:40;15.20;49.70
35497;DHT22;21609;49.298;6.844;2023-02-28T05:24:10;15.20;49.70
35497;DHT22;21609;49.298;6.844;2023-02-28T05:26:37;15.20;49.70
35497;DHT22;21609;49.298;6.844;2023-02-28T05:29:03;15.20;49.70
35497;DHT22;21609;49.298;6.844;2023-02-28T05:31:29;15.20;49.80
35497;DHT22;21609;49.298;6.844;2023-02-28T05:33:54;15.20;49.80
35497;DHT22;21609;49.298;6.844;2023-02-28T05:36:20;15.20;49.70
35497;DHT22;21609;49.298;6.844;2023-02-28T05:38:49;15.20;49.70
35497;DHT22;21609;49.298;6.844;2023-02-28T05:41:16;15.20;49.70
35497;DHT22;21609;49.298;6.844;2023-02-28T05:43:42;15.10;49.70
35497;DHT22;21609;49.298;6.844;2023-02-28T05:46:09;15.10;49.70
35497;DHT22;21609;49.298;6.844;2023-02-28T05:48:37;15.10;49.70
35497;DHT22;21609;49.298;6.844;2023-02-28T05:51:03;15.20;49.80
35497;DHT22;21609;49.298;6.844;2023-02-28T05:53:29;15.10;49.70
35497;DHT22;21609;49.298;6.844;2023-02-28T05:55:55;15.20;49.70
35497;DHT22;21609;49.298;6.844;2023-02-28T05:58:21;15.10;49.70
35497;DHT22;21609;49.298;6.844;2023-02-28T06:00:47;15.10;49.70
35497;DHT22;21609;49.298;6.844;2023-02-28T06:03:13;15.10;49.70
35497;DHT22;21609;49.298;6.844;2023-02-28T06:05:39;15.10;49.70
35497;DHT22;21609;49.298;6.844;2023-02-28T06:08:05;15.10;49.70
35497;DHT22;21609;49.298;6.844;2023-02-28T06:10:35;15.10;49.70
35497;DHT22;21609;49.298;6.844;2023-02-28T06:13:02;15.10;49.60
35497;DHT22;21609;49.298;6.844;2023-02-28T06:15:28;15.10;49.70
35497;DHT22;21609;49.298;6.844;2023-02-28T06:17:54;15.10;49.70
35497;DHT22;21609;49.298;6.844;2023-02-28T06:20:22;15.10;49.70
35497;DHT22;21609;49.298;6.844;2023-02-28T06:22:47;15.10;49.70
35497;DHT22;21609;49.298;6.844;2023-02-28T06:25:13;15.00;49.70
35497;DHT22;21609;49.298;6.844;2023-02-28T06:27:39;15.10;49.70
35497;DHT22;21609;49.298;6.844;2023-02-28T06:30:04;15.00;49.60
35497;DHT22;21609;49.298;6.844;2023-02-28T06:32:30;15.10;49.70
35497;DHT22;21609;49.298;6.844;2023-02-28T06:34:56;15.10;49.70
35497;DHT22;21609;49.298;6.844;2023-02-28T06:37:23;15.10;49.60
35497;DHT22;21609;49.298;6.844;2023-02-28T06:39:51;15.10;49.60
35497;DHT22;21609;49.298;6.844;2023-02-28T06:42:17;15.00;49.60
35497;DHT22;21609;49.298;6.844;2023-02-28T06:44:43;15.00;49.60
35497;DHT22;21609;49.298;6.844;2023-02-28T06:47:09;15.00;50.30
35497;DHT22;21609;49.298;6.844;2023-02-28T06:49:35;15.00;49.70
35497;DHT22;21609;49.298;6.844;2023-02-28T06:52:01;15.00;49.60
35497;DHT22;21609;49.298;6.844;2023-02-28T06:54:27;15.00;49.60
35497;DHT22;21609;49.298;6.844;2023-02-28T06:56:52;15.00;49.60
35497;DHT22;21609;49.298;6.844;2023-02-28T06:59:19;15.00;49.60
35497;DHT22;21609;49.298;6.844;2023-02-28T07:01:45;15.00;49.60
35497;DHT22;21609;49.298;6.844;2023-02-28T07:04:11;15.10;49.60
35497;DHT22;21609;49.298;6.844;2023-02-28T07:06:38;15.10;49.60
35497;DHT22;21609;49.298;6.844;2023-02-28T07:09:03;15.10;49.60
35497;DHT22;21609;49.298;6.844;2023-02-28T07:11:29;15.10;49.60
35497;DHT22;21609;49.298;6.844;2023-02-28T07:13:55;15.10;49.70
35497;DHT22;21609;49.298;6.844;2023-02-28T07:16:22;15.10;49.70
35497;DHT22;21609;49.298;6.844;2023-02-28T07:18:48;15.10;49.60
35497;DHT22;21609;49.298;6.844;2023-02-28T07:21:14;15.20;49.60
35497;DHT22;21609;49.298;6.844;2023-02-28T07:23:40;15.20;49.60
35497;DHT22;21609;49.298;6.844;2023-02-28T07:26:12;15.20;49.60
35497;DHT22;21609;49.298;6.844;2023-02-28T07:28:40;15.20;49.70
35497;DHT22;21609;49.298;6.844;2023-02-28T07:31:08;15.30;49.70
35497;DHT22;21609;49.298;6.844;2023-02-28T07:33:33;15.20;49.70
35497;DHT22;21609;49.298;6.844;2023-02-28T07:36:07;15.30;49.70
35497;DHT22;21609;49.298;6.844;2023-02-28T07:38:34;15.30;49.70
35497;DHT22;21609;49.298;6.844;2023-02-28T07:41:01;15.30;49.70
35497;DHT22;21609;49.298;6.844;2023-02-28T07:43:29;15.30;49.70
35497;DHT22;21609;49.298;6.844;2023-02-28T07:45:55;15.30;49.80
35497;DHT22;21609;49.298;6.844;2023-02-28T07:48:21;15.40;49.60
35497;DHT22;21609;49.298;6.844;2023-02-28T07:50:55;15.40;49.70
35497;DHT22;21609;49.298;6.844;2023-02-28T07:53:21;15.40;49.70
35497;DHT22;21609;49.298;6.844;2023-02-28T07:55:46;15.40;49.60
35497;DHT22;21609;49.298;6.844;2023-02-28T07:58:12;15.50;49.70
35497;DHT22;21609;49.298;6.844;2023-02-28T08:00:37;15.50;49.70
35497;DHT22;21609;49.298;6.844;2023-02-28T08:03:03;15.50;49.70
35497;DHT22;21609;49.298;6.844;2023-02-28T08:05:29;15.50;49.70
35497;DHT22;21609;49.298;6.844;2023-02-28T08:07:56;15.50;49.60
35497;DHT22;21609;49.298;6.844;2023-02-28T08:10:22;15.60;49.50
35497;DHT22;21609;49.298;6.844;2023-02-28T08:12:48;15.60;49.60
35497;DHT22;21609;49.298;6.844;2023-02-28T08:15:13;15.60;49.60
35497;DHT22;21609;49.298;6.844;2023-02-28T08:17:39;15.60;49.50
35497;DHT22;21609;49.298;6.844;2023-02-28T08:20:05;15.60;49.50
35497;DHT22;21609;49.298;6.844;2023-02-28T08:22:30;15.60;49.60
35497;DHT22;21609;49.298;6.844;2023-02-28T08:24:56;15.60;49.60
35497;DHT22;21609;49.298;6.844;2023-02-28T08:27:21;15.70;49.50
35497;DHT22;21609;49.298;6.844;2023-02-28T08:29:47;15.70;49.50
35497;DHT22;21609;49.298;6.844;2023-02-28T08:32:13;15.70;49.50
35497;DHT22;21609;49.298;6.844;2023-02-28T08:34:39;15.70;49.50
35497;DHT22;21609;49.298;6.844;2023-02-28T08:37:05;15.70;49.50
35497;DHT22;21609;49.298;6.844;2023-02-28T08:39:34;15.80;49.60
35497;DHT22;21609;49.298;6.844;2023-02-28T08:42:02;15.90;49.40
35497;DHT22;21609;49.298;6.844;2023-02-28T08:44:27;16.00;49.30
35497;DHT22;21609;49.298;6.844;2023-02-28T08:46:53;16.00;49.40
35497;DHT22;21609;49.298;6.844;2023-02-28T08:49:18;16.10;49.50
35497;DHT22;21609;49.298;6.844;2023-02-28T08:51:44;16.10;49.30
35497;DHT22;21609;49.298;6.844;2023-02-28T08:54:10;16.00;48.60
35497;DHT22;21609;49.298;6.844;2023-02-28T08:56:37;16.00;49.70
35497;DHT22;21609;49.298;6.844;2023-02-28T08:59:03;16.00;49.40
35497;DHT22;21609;49.298;6.844;2023-02-28T09:01:29;16.00;49.50
35497;DHT22;21609;49.298;6.844;2023-02-28T09:03:57;16.00;49.50
35497;DHT22;21609;49.298;6.844;2023-02-28T09:06:24;16.00;49.50
35497;DHT22;21609;49.298;6.844;2023-02-28T09:08:51;16.00;49.00
35497;DHT22;21609;49.298;6.844;2023-02-28T09:11:18;16.10;49.50
35497;DHT22;21609;49.298;6.844;2023-02-28T09:13:45;16.00;49.50
35497;DHT22;21609;49.298;6.844;2023-02-28T09:16:13;16.10;49.60
35497;DHT22;21609;49.298;6.844;2023-02-28T09:18:40;16.10;49.60
35497;DHT22;21609;49.298;6.844;2023-02-28T09:21:08;16.10;49.40
35497;DHT22;21609;49.298;6.844;2023-02-28T09:23:34;16.10;49.40
35497;DHT22;21609;49.298;6.844;2023-02-28T09:26:00;16.10;49.50
35497;DHT22;21609;49.298;6.844;2023-02-28T09:28:26;16.10;49.50
35497;DHT22;21609;49.298;6.844;2023-02-28T09:30:53;16.10;49.40
35497;DHT22;21609;49.298;6.844;2023-02-28T09:33:20;16.10;49.40
35497;DHT22;21609;49.298;6.844;2023-02-28T09:35:47;16.10;49.40
35497;DHT22;21609;49.298;6.844;2023-02-28T09:38:13;16.10;49.50
35497;DHT22;21609;49.298;6.844;2023-02-28T09:40:57;16.20;49.60
35497;DHT22;21609;49.298;6.844;2023-02-28T09:43:27;16.30;49.40
35497;DHT22;21609;49.298;6.844;2023-02-28T09:46:04;16.40;49.30
35497;DHT22;21609;49.298;6.844;2023-02-28T09:48:41;16.40;49.40
35497;DHT22;21609;49.298;6.844;2023-02-28T09:54:00;16.40;49.40
35497;DHT22;21609;49.298;6.844;2023-02-28T09:59:05;16.50;49.40
35497;DHT22;21609;49.298;6.844;2023-02-28T10:01:46;16.50;49.30
35497;DHT22;21609;49.298;6.844;2023-02-28T10:07:03;16.50;49.20
35497;DHT22;21609;49.298;6.844;2023-02-28T10:09:32;16.50;49.20
35497;DHT22;21609;49.298;6.844;2023-02-28T10:12:05;16.50;49.10
35497;DHT22;21609;49.298;6.844;2023-02-28T10:14:33;16.50;49.70
35497;DHT22;21609;49.298;6.844;2023-02-28T10:17:08;16.50;49.10
35497;DHT22;21609;49.298;6.844;2023-02-28T10:19:47;16.50;49.10
35497;DHT22;21609;49.298;6.844;2023-02-28T10:24:49;16.50;49.10
35497;DHT22;21609;49.298;6.844;2023-02-28T10:27:20;16.50;48.90
35497;DHT22;21609;49.298;6.844;2023-02-28T10:29:52;16.50;49.00
35497;DHT22;21609;49.298;6.844;2023-02-28T10:32:23;16.50;48.80
35497;DHT22;21609;49.298;6.844;2023-02-28T10:34:57;16.60;48.70
35497;DHT22;21609;49.298;6.844;2023-02-28T10:37:22;16.60;48.90
35497;DHT22;21609;49.298;6.844;2023-02-28T10:39:48;16.60;48.60
35497;DHT22;21609;49.298;6.844;2023-02-28T10:42:23;16.60;48.70
35497;DHT22;21609;49.298;6.844;2023-02-28T10:45:16;16.70;48.70
35497;DHT22;21609;49.298;6.844;2023-02-28T10:47:57;16.70;49.10
35497;DHT22;21609;49.298;6.844;2023-02-28T10:56:16;16.80;48.80
35497;DHT22;21609;49.298;6.844;2023-02-28T10:59:22;16.80;49.10
35497;DHT22;21609;49.298;6.844;2023-02-28T11:01:48;16.90;49.20
35497;DHT22;21609;49.298;6.844;2023-02-28T11:07:03;17.00;49.20
35497;DHT22;21609;49.298;6.844;2023-02-28T11:09:37;17.10;49.10
35497;DHT22;21609;49.298;6.844;2023-02-28T11:12:06;17.10;48.90
35497;DHT22;21609;49.298;6.844;2023-02-28T11:14:39;17.10;48.90
35497;DHT22;21609;49.298;6.844;2023-02-28T11:17:23;17.20;48.40
35497;DHT22;21609;49.298;6.844;2023-02-28T11:19:58;17.20;48.70
35497;DHT22;21609;49.298;6.844;2023-02-28T11:22:28;17.20;48.50
35497;DHT22;21609;49.298;6.844;2023-02-28T11:25:01;17.20;48.30
35497;DHT22;21609;49.298;6.844;2023-02-28T11:29:56;16.90;46.90
35497;DHT22;21609;49.298;6.844;2023-02-28T11:32:23;16.90;49.40
35497;DHT22;21609;49.298;6.844;2023-02-28T11:37:38;17.10;48.70
35497;DHT22;21609;49.298;6.844;2023-02-28T11:40:15;17.20;48.50
35497;DHT22;21609;49.298;6.844;2023-02-28T11:42:50;17.20;48.40
35497;DHT22;21609;49.298;6.844;2023-02-28T11:48:12;17.30;48.20
35497;DHT22;21609;49.298;6.844;2023-02-28T11:53:53;17.30;47.80
35497;DHT22;21609;49.298;6.844;2023-02-28T11:56:32;17.40;48.20
35497;DHT22;21609;49.298;6.844;2023-02-28T11:59:22;17.30;48.10
35497;DHT22;21609;49.298;6.844;2023-02-28T12:02:06;17.30;48.10
35497;DHT22;21609;49.298;6.844;2023-02-28T12:10:22;17.20;48.40
35497;DHT22;21609;49.298;6.844;2023-02-28T12:18:25;17.20;48.50
35497;DHT22;21609;49.298;6.844;2023-02-28T12:23:52;17.20;48.70
35497;DHT22;21609;49.298;6.844;2023-02-28T12:26:41;17.30;48.90
35497;DHT22;21609;49.298;6.844;2023-02-28T12:31:40;17.40;48.30
35497;DHT22;21609;49.298;6.844;2023-02-28T12:34:12;17.40;48.30
35497;DHT22;21609;49.298;6.844;2023-02-28T12:36:39;17.40;48.30
35497;DHT22;21609;49.298;6.844;2023-02-28T12:39:24;17.30;48.20
35497;DHT22;21609;49.298;6.844;2023-02-28T12:41:59;17.30;48.30
35497;DHT22;21609;49.298;6.844;2023-02-28T12:44:37;17.30;48.00
35497;DHT22;21609;49.298;6.844;2023-02-28T12:47:11;17.20;48.20
35497;DHT22;21609;49.298;6.844;2023-02-28T12:50:03;17.20;48.00
35497;DHT22;21609;49.298;6.844;2023-02-28T12:58:01;17.10;48.00
35497;DHT22;21609;49.298;6.844;2023-02-28T13:00:35;17.00;48.20
35497;DHT22;21609;49.298;6.844;2023-02-28T13:06:09;16.90;48.40
35497;DHT22;21609;49.298;6.844;2023-02-28T13:09:01;16.90;48.30
35497;DHT22;21609;49.298;6.844;2023-02-28T13:11:45;16.90;48.30
35497;DHT22;21609;49.298;6.844;2023-02-28T13:19:46;16.80;48.50
35497;DHT22;21609;49.298;6.844;2023-02-28T13:22:45;16.80;48.40
35497;DHT22;21609;49.298;6.844;2023-02-28T13:27:53;16.70;48.50
35497;DHT22;21609;49.298;6.844;2023-02-28T13:33:33;17.10;49.10
35497;DHT22;21609;49.298;6.844;2023-02-28T13:36:26;17.30;48.90
35497;DHT22;21609;49.298;6.844;2023-02-28T13:39:00;17.30;48.70
35497;DHT22;21609;49.298;6.844;2023-02-28T13:51:52;17.30;48.00
35497;DHT22;21609;49.298;6.844;2023-02-28T13:54:52;17.30;48.00
35497;DHT22;21609;49.298;6.844;2023-02-28T14:07:57;17.20;48.20
35497;DHT22;21609;49.298;6.844;2023-02-28T14:10:42;17.20;48.20
35497;DHT22;21609;49.298;6.844;2023-02-28T14:16:00;17.10;48.10
35497;DHT22;21609;49.298;6.844;2023-02-28T14:18:32;17.10;48.30
35497;DHT22;21609;49.298;6.844;2023-02-28T14:21:08;17.00;48.20
35497;DHT22;21609;49.298;6.844;2023-02-28T14:32:45;17.00;48.30
35497;DHT22;21609;49.298;6.844;2023-02-28T14:35:56;17.00;48.90
35497;DHT22;21609;49.298;6.844;2023-02-28T14:38:25;17.00;48.30
35497;DHT22;21609;49.298;6.844;2023-02-28T14:40:52;17.00;48.40
35497;DHT22;21609;49.298;6.844;2023-02-28T14:43:27;16.90;48.30
35497;DHT22;21609;49.298;6.844;2023-02-28T14:46:04;16.90;48.30
35497;DHT22;21609;49.298;6.844;2023-02-28T14:48:31;16.90;48.30
35497;DHT22;21609;49.298;6.844;2023-02-28T14:50:58;16.90;48.40
35497;DHT22;21609;49.298;6.844;2023-02-28T14:53:30;16.90;48.30
35497;DHT22;21609;49.298;6.844;2023-02-28T14:55:56;16.90;48.30
35497;DHT22;21609;49.298;6.844;2023-02-28T14:58:24;16.90;48.30
35497;DHT22;21609;49.298;6.844;2023-02-28T15:00:51;16.90;48.30
35497;DHT22;21609;49.298;6.844;2023-02-28T15:05:55;17.00;48.50
35497;DHT22;21609;49.298;6.844;2023-02-28T15:08:23;17.00;48.50
35497;DHT22;21609;49.298;6.844;2023-02-28T15:10:57;17.10;48.40
35497;DHT22;21609;49.298;6.844;2023-02-28T15:13:30;17.10;48.30
35497;DHT22;21609;49.298;6.844;2023-02-28T15:16:02;17.10;48.20
35497;DHT22;21609;49.298;6.844;2023-02-28T15:18:33;17.20;48.20
35497;DHT22;21609;49.298;6.844;2023-02-28T15:21:11;17.20;48.10
35497;DHT22;21609;49.298;6.844;2023-02-28T15:23:41;17.20;48.10
35497;DHT22;21609;49.298;6.844;2023-02-28T15:26:15;17.10;48.10
35497;DHT22;21609;49.298;6.844;2023-02-28T15:28:43;17.20;48.10
35497;DHT22;21609;49.298;6.844;2023-02-28T15:31:45;17.10;48.10
35497;DHT22;21609;49.298;6.844;2023-02-28T15:34:20;17.10;47.90
35497;DHT22;21609;49.298;6.844;2023-02-28T15:36:46;17.10;48.00
35497;DHT22;21609;49.298;6.844;2023-02-28T15:39:20;17.00;48.00
35497;DHT22;21609;49.298;6.844;2023-02-28T15:41:46;17.00;48.00
35497;DHT22;21609;49.298;6.844;2023-02-28T15:47:06;17.00;47.90
35497;DHT22;21609;49.298;6.844;2023-02-28T15:49:45;16.90;47.80
35497;DHT22;21609;49.298;6.844;2023-02-28T15:52:17;16.80;47.90
35497;DHT22;21609;49.298;6.844;2023-02-28T15:54:44;16.80;47.80
35497;DHT22;21609;49.298;6.844;2023-02-28T15:57:15;16.80;47.80
35497;DHT22;21609;49.298;6.844;2023-02-28T15:59:52;16.70;47.90
35497;DHT22;21609;49.298;6.844;2023-02-28T16:02:41;16.70;47.70
35497;DHT22;21609;49.298;6.844;2023-02-28T16:07:36;16.60;47.90
35497;DHT22;21609;49.298;6.844;2023-02-28T16:10:04;16.60;47.90
35497;DHT22;21609;49.298;6.844;2023-02-28T16:12:31;16.50;48.00
35497;DHT22;21609;49.298;6.844;2023-02-28T16:15:01;16.50;48.00
35497;DHT22;21609;49.298;6.844;2023-02-28T16:17:31;16.40;47.90
35497;DHT22;21609;49.298;6.844;2023-02-28T16:19:59;16.30;48.10
35497;DHT22;21609;49.298;6.844;2023-02-28T16:22:25;16.30;48.30
35497;DHT22;21609;49.298;6.844;2023-02-28T16:24:51;16.30;48.00
35497;DHT22;21609;49.298;6.844;2023-02-28T16:27:21;16.30;48.00
35497;DHT22;21609;49.298;6.844;2023-02-28T16:29:49;16.30;48.10
35497;DHT22;21609;49.298;6.844;2023-02-28T16:32:15;16.30;48.10
35497;DHT22;21609;49.298;6.844;2023-02-28T16:34:43;16.40;48.00
35497;DHT22;21609;49.298;6.844;2023-02-28T16:37:17;16.40;47.90
35497;DHT22;21609;49.298;6.844;2023-02-28T16:39:43;16.40;47.80
35497;DHT22;21609;49.298;6.844;2023-02-28T16:42:20;16.40;47.90
35497;DHT22;21609;49.298;6.844;2023-02-28T16:44:47;16.40;47.90
35497;DHT22;21609;49.298;6.844;2023-02-28T16:47:13;16.40;47.90
35497;DHT22;21609;49.298;6.844;2023-02-28T16:49:39;16.40;47.90
35497;DHT22;21609;49.298;6.844;2023-02-28T16:52:07;16.40;47.70
35497;DHT22;21609;49.298;6.844;2023-02-28T16:54:33;16.40;47.70
35497;DHT22;21609;49.298;6.844;2023-02-28T16:56:59;16.30;47.80
35497;DHT22;21609;49.298;6.844;2023-02-28T16:59:26;16.30;48.00
35497;DHT22;21609;49.298;6.844;2023-02-28T17:01:53;16.30;47.90
35497;DHT22;21609;49.298;6.844;2023-02-28T17:04:19;16.30;48.00
35497;DHT22;21609;49.298;6.844;2023-02-28T17:06:45;16.30;48.10
35497;DHT22;21609;49.298;6.844;2023-02-28T17:09:21;16.30;48.20
35497;DHT22;21609;49.298;6.844;2023-02-28T17:11:48;16.30;48.20
35497;DHT22;21609;49.298;6.844;2023-02-28T17:14:14;16.30;48.20
35497;DHT22;21609;49.298;6.844;2023-02-28T17:16:41;16.30;48.30
35497;DHT22;21609;49.298;6.844;2023-02-28T17:19:13;16.30;48.20
35497;DHT22;21609;49.298;6.844;2023-02-28T17:21:40;16.30;48.20
35497;DHT22;21609;49.298;6.844;2023-02-28T17:24:08;16.20;48.20
35497;DHT22;21609;49.298;6.844;2023-02-28T17:26:34;16.30;48.20
35497;DHT22;21609;49.298;6.844;2023-02-28T17:28:59;16.20;48.20
35497;DHT22;21609;49.298;6.844;2023-02-28T17:31:26;16.20;48.30
35497;DHT22;21609;49.298;6.844;2023-02-28T17:33:52;16.20;48.30
35497;DHT22;21609;49.298;6.844;2023-02-28T17:36:24;16.20;48.30
35497;DHT22;21609;49.298;6.844;2023-02-28T17:38:52;16.20;48.30
35497;DHT22;21609;49.298;6.844;2023-02-28T17:41:18;16.10;48.40
35497;DHT22;21609;49.298;6.844;2023-02-28T17:43:44;16.10;48.40
35497;DHT22;21609;49.298;6.844;2023-02-28T17:46:18;16.10;48.90
35497;DHT22;21609;49.298;6.844;2023-02-28T17:48:49;16.10;48.50
35497;DHT22;21609;49.298;6.844;2023-02-28T17:51:15;16.00;48.50
35497;DHT22;21609;49.298;6.844;2023-02-28T17:53:41;16.00;48.50
35497;DHT22;21609;49.298;6.844;2023-02-28T17:56:26;16.00;48.60
35497;DHT22;21609;49.298;6.844;2023-02-28T17:58:53;16.00;48.60
35497;DHT22;21609;49.298;6.844;2023-02-28T18:01:20;16.00;48.60
35497;DHT22;21609;49.298;6.844;2023-02-28T18:03:46;16.00;48.60
35497;DHT22;21609;49.298;6.844;2023-02-28T18:06:28;16.00;48.70
35497;DHT22;21609;49.298;6.844;2023-02-28T18:08:56;16.00;48.70
35497;DHT22;21609;49.298;6.844;2023-02-28T18:11:22;16.00;48.70